Time;durP1;ratioP1;P1;durP2;ratioP2;P2;SDS_P1;SDS_P2;PMS_P1;PMS_P2;Temp;Humidity;BMP_temperature;BMP_pressure;BME280_temperature;BME280_humidity;BME280_pressure;Samples;Min_cycle;Max_cycle;Signal;HPM_P1;HPM_P2
2021/03/07 00:00:49;;;;;;;3.28;2.05;;;0.50;56.40;;;;;;5004959;28;20173;-68
2021/03/07 00:03:15;;;;;;;3.65;2.05;;;0.50;56.40;;;;;;5002531;28;20042;-69
2021/03/07 00:05:42;;;;;;;2.85;1.90;;;0.50;56.10;;;;;;5006738;28;20046;-69
2021/03/07 00:08:08;;;;;;;4.70;2.05;;;0.40;56.20;;;;;;5002489;28;20050;-69
2021/03/07 00:10:34;;;;;;;4.78;2.15;;;0.40;56.10;;;;;;5006744;28;20042;-69
2021/03/07 00:13:00;;;;;;;4.03;2.28;;;0.40;56.20;;;;;;5004091;28;20506;-69
2021/03/07 00:15:26;;;;;;;4.15;2.22;;;0.30;56.20;;;;;;5002964;28;20043;-69
2021/03/07 00:17:52;;;;;;;5.85;2.45;;;0.30;56.40;;;;;;5012673;28;20037;-69
2021/03/07 00:20:21;;;;;;;3.13;1.95;;;0.30;56.30;;;;;;5003063;28;20081;-69
2021/03/07 00:22:47;;;;;;;4.38;2.47;;;0.30;56.30;;;;;;5005927;28;20129;-69
2021/03/07 00:25:16;;;;;;;4.32;2.33;;;0.30;56.30;;;;;;4999939;28;20045;-69
2021/03/07 00:27:42;;;;;;;4.23;2.23;;;0.30;56.30;;;;;;5005644;28;20057;-69
2021/03/07 00:30:15;;;;;;;2.85;1.90;;;0.20;56.30;;;;;;5005162;28;20066;-69
2021/03/07 00:32:42;;;;;;;3.53;2.10;;;0.20;56.20;;;;;;5007038;28;20050;-69
2021/03/07 00:35:10;;;;;;;2.95;2.00;;;0.20;56.40;;;;;;5004400;28;20104;-69
2021/03/07 00:37:37;;;;;;;3.30;1.92;;;0.20;56.30;;;;;;5103635;27;20127;-69
2021/03/07 00:40:05;;;;;;;3.78;2.10;;;0.20;56.30;;;;;;5004212;28;20046;-69
2021/03/07 00:42:32;;;;;;;4.47;2.40;;;0.10;56.20;;;;;;5003455;28;20050;-69
2021/03/07 00:44:58;;;;;;;4.00;2.20;;;0.10;56.40;;;;;;5005013;28;20053;-69
2021/03/07 00:47:25;;;;;;;6.25;2.40;;;0.10;56.30;;;;;;5106140;27;20068;-69
2021/03/07 00:49:51;;;;;;;4.05;2.10;;;0.10;56.10;;;;;;5004417;28;20045;-69
2021/03/07 00:52:18;;;;;;;2.70;1.98;;;0.10;56.20;;;;;;5004166;28;20052;-69
2021/03/07 00:54:44;;;;;;;4.85;2.20;;;0.00;56.10;;;;;;5104802;27;20093;-69
2021/03/07 00:57:10;;;;;;;3.38;2.35;;;0.00;56.10;;;;;;5004361;28;20062;-70
2021/03/07 00:59:36;;;;;;;3.95;2.33;;;0.00;56.10;;;;;;5005358;28;20042;-69
2021/03/07 01:02:02;;;;;;;2.58;1.70;;;-0.10;56.10;;;;;;5007384;28;20140;-69
2021/03/07 01:04:29;;;;;;;4.38;1.73;;;-0.10;56.10;;;;;;5001867;28;20042;-69
2021/03/07 01:06:55;;;;;;;3.20;1.80;;;-0.10;56.10;;;;;;5002131;28;20056;-69
2021/03/07 01:09:22;;;;;;;2.83;1.77;;;-0.10;56.60;;;;;;5003851;28;20140;-69
2021/03/07 01:12:01;;;;;;;;;;;-0.10;56.10;;;;;;5005437;28;20115;-69
2021/03/07 01:14:27;;;;;;;3.20;1.65;;;-0.20;56.10;;;;;;5005330;28;19929;-69
2021/03/07 01:16:53;;;;;;;2.35;1.70;;;-0.20;55.80;;;;;;5005072;28;20057;-69
2021/03/07 01:19:19;;;;;;;3.10;1.65;;;-0.20;55.80;;;;;;5007697;28;20053;-69
2021/03/07 01:21:45;;;;;;;3.83;1.80;;;-0.20;55.80;;;;;;5002714;28;20046;-69
2021/03/07 01:24:12;;;;;;;3.25;1.95;;;-0.30;55.90;;;;;;5001048;28;20054;-69
2021/03/07 01:26:38;;;;;;;2.35;1.30;;;-0.20;55.80;;;;;;5002103;28;21674;-69
2021/03/07 01:29:05;;;;;;;3.13;1.80;;;-0.30;56.00;;;;;;5002209;28;20053;-69
2021/03/07 01:31:31;;;;;;;3.60;1.90;;;-0.30;56.00;;;;;;5004878;28;20057;-69
2021/03/07 01:33:57;;;;;;;3.15;1.80;;;-0.30;55.70;;;;;;5001511;28;20095;-69
2021/03/07 01:36:23;;;;;;;2.13;1.63;;;-0.30;55.80;;;;;;5003264;28;20096;-69
2021/03/07 01:38:49;;;;;;;2.35;1.58;;;-0.40;55.80;;;;;;5003397;28;20060;-69
2021/03/07 01:41:15;;;;;;;2.20;1.50;;;-0.40;55.80;;;;;;5005957;28;20083;-69
2021/03/07 01:43:42;;;;;;;3.65;1.58;;;-0.40;55.90;;;;;;5004330;28;20056;-69
2021/03/07 01:46:08;;;;;;;1.73;1.30;;;-0.40;56.10;;;;;;5004169;28;20041;-69
2021/03/07 01:48:35;;;;;;;2.60;1.35;;;-0.50;55.90;;;;;;5000965;28;20759;-69
2021/03/07 01:51:02;;;;;;;2.75;1.25;;;-0.50;56.00;;;;;;5005558;28;20057;-69
2021/03/07 01:53:28;;;;;;;1.83;1.30;;;-0.60;55.80;;;;;;5005347;28;20042;-70
2021/03/07 01:55:56;;;;;;;3.20;1.30;;;-0.60;55.80;;;;;;5002685;28;20438;-69
2021/03/07 01:58:27;;;;;;;2.05;1.30;;;-0.70;55.70;;;;;;5001288;28;20129;-69
2021/03/07 02:00:54;;;;;;;2.55;1.45;;;-0.60;55.80;;;;;;5002906;28;20136;-69
2021/03/07 02:03:21;;;;;;;1.73;1.10;;;-0.70;56.10;;;;;;5005674;28;20046;-69
2021/03/07 02:05:48;;;;;;;3.13;1.60;;;-0.70;56.10;;;;;;5004711;28;20044;-69
2021/03/07 02:08:18;;;;;;;2.47;1.50;;;-0.80;56.00;;;;;;4997843;28;20058;-69
2021/03/07 02:10:51;;;;;;;2.97;1.90;;;-0.80;55.90;;;;;;5003033;28;20056;-69
2021/03/07 02:13:31;;;;;;;3.00;1.35;;;-0.80;56.30;;;;;;5001978;28;20050;-69
2021/03/07 02:16:02;;;;;;;2.45;1.75;;;-0.90;56.30;;;;;;5001675;28;20060;-69
2021/03/07 02:18:31;;;;;;;1.77;1.45;;;-0.90;56.80;;;;;;5007037;28;20056;-69
2021/03/07 02:21:23;;;;;;;3.00;1.73;;;-0.90;56.20;;;;;;5004331;28;20077;-69
2021/03/07 02:24:02;;;;;;;2.03;1.42;;;-0.90;56.00;;;;;;5002785;28;20128;-69
2021/03/07 02:26:29;;;;;;;2.40;1.55;;;-0.90;56.10;;;;;;5002477;28;20049;-69
2021/03/07 02:28:55;;;;;;;2.42;2.10;;;-0.90;56.10;;;;;;4998661;28;20511;-69
2021/03/07 02:31:25;;;;;;;2.15;1.60;;;-1.00;55.80;;;;;;5003727;28;20049;-69
2021/03/07 02:34:08;;;;;;;2.15;1.60;;;-1.00;55.80;;;;;;4998783;28;20065;-69
2021/03/07 02:36:42;;;;;;;3.50;1.63;;;-1.00;56.00;;;;;;4998702;28;20057;-69
2021/03/07 02:39:10;;;;;;;2.45;1.60;;;-1.10;56.20;;;;;;4999672;28;20039;-69
2021/03/07 02:41:36;;;;;;;2.10;1.80;;;-1.10;56.30;;;;;;5003535;28;20473;-69
2021/03/07 02:44:06;;;;;;;3.42;2.20;;;-1.10;56.10;;;;;;5002360;28;20046;-69
2021/03/07 02:46:33;;;;;;;2.00;1.40;;;-1.10;55.90;;;;;;5003324;28;20050;-69
2021/03/07 02:49:03;;;;;;;2.25;1.70;;;-1.10;56.00;;;;;;5004636;28;20061;-69
2021/03/07 02:51:33;;;;;;;2.78;1.85;;;-1.10;55.80;;;;;;5003072;28;20064;-69
2021/03/07 02:54:05;;;;;;;2.53;1.48;;;-1.20;55.70;;;;;;5000518;28;20054;-69
2021/03/07 02:56:35;;;;;;;2.80;1.55;;;-1.20;55.60;;;;;;5099244;27;20485;-69
2021/03/07 02:59:06;;;;;;;2.65;1.40;;;-1.20;55.60;;;;;;5003804;28;20042;-69
2021/03/07 03:01:33;;;;;;;2.60;1.38;;;-1.20;55.60;;;;;;5003942;28;20056;-69
2021/03/07 03:04:01;;;;;;;2.60;1.40;;;-1.20;55.60;;;;;;5004457;28;20136;-69
2021/03/07 03:06:28;;;;;;;4.47;1.98;;;-1.20;55.80;;;;;;4997864;28;20477;-69
2021/03/07 03:08:57;;;;;;;2.10;1.88;;;-1.30;55.90;;;;;;5009845;28;20054;-69
2021/03/07 03:11:27;;;;;;;2.38;1.55;;;-1.30;56.10;;;;;;5000430;28;20046;-70
2021/03/07 03:13:54;;;;;;;2.80;1.50;;;-1.30;56.30;;;;;;5003680;28;20357;-69
2021/03/07 03:16:28;;;;;;;2.28;1.23;;;-1.30;55.80;;;;;;5001403;28;20508;-69
2021/03/07 03:18:57;;;;;;;3.03;1.40;;;-1.40;55.60;;;;;;5001303;28;20166;-69
2021/03/07 03:21:23;;;;;;;2.88;1.70;;;-1.40;55.60;;;;;;5007599;28;20042;-69
2021/03/07 03:23:50;;;;;;;2.75;1.30;;;-1.40;55.60;;;;;;5007496;28;20041;-69
2021/03/07 03:26:22;;;;;;;2.47;1.45;;;-1.40;55.70;;;;;;5005889;28;20201;-69
2021/03/07 03:28:49;;;;;;;2.83;1.42;;;-1.30;55.70;;;;;;5007377;28;20560;-69
2021/03/07 03:31:15;;;;;;;2.92;1.10;;;-1.30;55.60;;;;;;5008489;28;20435;-69
2021/03/07 03:33:41;;;;;;;1.63;1.35;;;-1.40;55.50;;;;;;5009854;28;20416;-69
2021/03/07 03:36:08;;;;;;;2.28;1.48;;;-1.40;55.50;;;;;;5003811;28;20050;-69
2021/03/07 03:38:49;;;;;;;2.33;1.50;;;-1.40;55.60;;;;;;5004941;28;20047;-69
2021/03/07 03:41:16;;;;;;;2.00;1.58;;;-1.40;55.70;;;;;;5005723;28;20038;-69
2021/03/07 03:43:54;;;;;;;2.35;1.52;;;-1.40;55.70;;;;;;5007721;28;20478;-69
2021/03/07 03:46:23;;;;;;;2.72;1.55;;;-1.40;55.70;;;;;;5003783;28;20455;-69
2021/03/07 03:49:01;;;;;;;1.60;1.10;;;-1.40;55.80;;;;;;5006987;28;20065;-69
2021/03/07 03:51:33;;;;;;;4.50;2.00;;;-1.40;55.80;;;;;;5010608;28;20058;-69
2021/03/07 03:54:01;;;;;;;2.70;1.55;;;-1.30;55.90;;;;;;5006210;28;20088;-69
2021/03/07 03:56:29;;;;;;;2.28;1.33;;;-1.30;56.00;;;;;;5006511;28;20058;-69
2021/03/07 03:58:57;;;;;;;2.58;1.45;;;-1.30;56.00;;;;;;5005755;28;20049;-69
2021/03/07 04:01:24;;;;;;;2.40;1.53;;;-1.30;56.10;;;;;;5005523;28;20042;-69
2021/03/07 04:03:53;;;;;;;2.60;1.50;;;-1.20;56.30;;;;;;5005274;28;20301;-69
2021/03/07 04:06:24;;;;;;;2.35;1.30;;;-1.20;56.30;;;;;;5003181;28;20810;-69
2021/03/07 04:08:52;;;;;;;2.05;1.40;;;-1.10;56.50;;;;;;5007173;28;20487;-69
2021/03/07 04:11:20;;;;;;;1.95;1.55;;;-1.10;56.60;;;;;;5006322;28;20137;-69
2021/03/07 04:13:46;;;;;;;2.85;1.40;;;-1.10;56.60;;;;;;5007753;28;20052;-69
2021/03/07 04:16:14;;;;;;;2.45;1.30;;;-1.10;56.70;;;;;;5003705;28;20060;-69
2021/03/07 04:18:41;;;;;;;1.77;1.13;;;-1.00;56.80;;;;;;5006340;28;20129;-69
2021/03/07 04:21:08;;;;;;;2.97;1.70;;;-1.00;56.90;;;;;;5006031;28;20056;-69
2021/03/07 04:23:35;;;;;;;2.65;1.42;;;-0.90;57.10;;;;;;5020172;28;20103;-69
2021/03/07 04:26:02;;;;;;;1.60;1.17;;;-0.90;57.10;;;;;;5035075;28;20045;-69
2021/03/07 04:28:29;;;;;;;3.15;1.50;;;-0.90;57.20;;;;;;5013086;28;20050;-69
2021/03/07 04:30:55;;;;;;;2.55;1.20;;;-0.80;57.20;;;;;;5003242;28;20068;-69
2021/03/07 04:33:22;;;;;;;2.97;1.65;;;-0.80;57.50;;;;;;5007692;28;20144;-69
2021/03/07 04:35:49;;;;;;;3.17;1.45;;;-0.80;57.80;;;;;;5099494;27;20408;-69
2021/03/07 04:38:16;;;;;;;1.90;1.30;;;-0.80;57.60;;;;;;5002971;28;20046;-69
2021/03/07 04:40:42;;;;;;;3.08;1.30;;;-0.80;57.60;;;;;;5004109;28;20125;-69
2021/03/07 04:43:08;;;;;;;1.40;1.00;;;-0.80;57.60;;;;;;5003441;28;20338;-69
2021/03/07 04:45:35;;;;;;;1.55;1.05;;;-0.80;57.80;;;;;;4998421;28;20054;-69
2021/03/07 04:48:02;;;;;;;1.92;1.20;;;-0.70;58.00;;;;;;4997592;28;20138;-69
2021/03/07 04:50:29;;;;;;;1.70;1.17;;;-0.70;58.30;;;;;;4997134;28;20144;-69
2021/03/07 04:52:55;;;;;;;1.52;1.10;;;-0.70;58.30;;;;;;5003830;28;20141;-69
2021/03/07 04:55:21;;;;;;;1.80;1.58;;;-0.70;58.40;;;;;;5026477;28;20536;-69
2021/03/07 04:57:47;;;;;;;2.25;1.10;;;-0.60;58.50;;;;;;5005684;28;20134;-69
2021/03/07 05:00:15;;;;;;;2.10;1.20;;;-0.60;58.20;;;;;;5006366;28;20042;-69
2021/03/07 05:02:42;;;;;;;2.00;1.40;;;-0.60;58.50;;;;;;5005291;28;20087;-70
2021/03/07 05:05:09;;;;;;;1.65;1.20;;;-0.60;58.80;;;;;;4995794;28;20046;-69
2021/03/07 05:07:36;;;;;;;2.05;1.20;;;-0.50;58.80;;;;;;5001187;28;20081;-69
2021/03/07 05:10:05;;;;;;;1.65;1.27;;;-0.50;58.80;;;;;;4998009;28;20526;-69
2021/03/07 05:12:31;;;;;;;2.45;1.70;;;-0.50;58.40;;;;;;5000485;28;20512;-69
2021/03/07 05:15:07;;;;;;;1.65;1.02;;;-0.40;58.50;;;;;;4999147;28;20054;-70
2021/03/07 05:17:34;;;;;;;2.15;1.55;;;-0.40;58.70;;;;;;4994509;28;20092;-69
2021/03/07 05:20:01;;;;;;;3.30;1.33;;;-0.40;58.90;;;;;;4997429;28;20144;-69
2021/03/07 05:22:27;;;;;;;2.67;1.30;;;-0.40;58.60;;;;;;5014120;28;20046;-69
2021/03/07 05:24:54;;;;;;;2.80;1.20;;;-0.40;58.60;;;;;;4999598;28;20449;-69
2021/03/07 05:27:20;;;;;;;2.00;1.58;;;-0.30;58.90;;;;;;4993280;28;20042;-69
2021/03/07 05:29:46;;;;;;;3.38;1.00;;;-0.30;58.90;;;;;;5000156;28;20045;-69
2021/03/07 05:32:13;;;;;;;1.77;0.95;;;-0.30;58.90;;;;;;4993640;28;20047;-69
2021/03/07 05:34:39;;;;;;;1.50;0.90;;;-0.30;59.00;;;;;;4997361;28;20050;-69
2021/03/07 05:37:06;;;;;;;1.52;1.10;;;-0.30;59.60;;;;;;5000209;28;20042;-69
2021/03/07 05:39:32;;;;;;;1.75;1.02;;;-0.30;59.00;;;;;;4998800;28;20095;-69
2021/03/07 05:41:58;;;;;;;1.83;1.10;;;-0.30;59.20;;;;;;5006755;28;20049;-69
2021/03/07 05:44:25;;;;;;;2.28;1.33;;;-0.30;59.20;;;;;;5004649;28;20151;-69
2021/03/07 05:46:51;;;;;;;2.35;1.50;;;-0.20;59.30;;;;;;5096033;27;20046;-69
2021/03/07 05:49:18;;;;;;;1.55;1.05;;;-0.20;59.50;;;;;;5002249;28;20065;-69
2021/03/07 05:51:44;;;;;;;1.58;0.90;;;-0.20;59.50;;;;;;5003335;28;20057;-69
2021/03/07 05:54:12;;;;;;;1.98;1.17;;;-0.30;59.60;;;;;;5001960;28;20042;-70
2021/03/07 05:56:41;;;;;;;2.97;1.10;;;-0.20;59.50;;;;;;5001047;28;20054;-69
2021/03/07 05:59:08;;;;;;;1.85;1.13;;;-0.20;59.60;;;;;;5005590;28;20073;-69
2021/03/07 06:01:35;;;;;;;3.22;1.38;;;-0.20;59.50;;;;;;5007468;28;20420;-69
2021/03/07 06:04:03;;;;;;;3.92;1.20;;;-0.20;59.70;;;;;;5010093;28;20120;-69
2021/03/07 06:06:31;;;;;;;2.10;1.15;;;-0.20;59.70;;;;;;5003511;28;20054;-69
2021/03/07 06:09:16;;;;;;;2.60;1.30;;;-0.10;59.80;;;;;;5010282;28;21268;-69
2021/03/07 06:11:42;;;;;;;1.77;1.10;;;-0.10;59.90;;;;;;5005113;28;20173;-69
2021/03/07 06:14:26;;;;;;;1.55;0.90;;;-0.10;60.10;;;;;;5007316;28;20411;-69
2021/03/07 06:17:05;;;;;;;1.80;1.17;;;-0.10;60.30;;;;;;5104207;27;20513;-69
2021/03/07 06:19:52;;;;;;;;;;;-0.10;60.20;;;;;;5015314;28;20608;-69
2021/03/07 06:22:18;;;;;;;1.88;1.10;;;0.00;60.40;;;;;;5005112;28;19925;-69
2021/03/07 06:24:45;;;;;;;2.05;0.90;;;0.00;60.00;;;;;;5012716;28;20046;-69
2021/03/07 06:27:13;;;;;;;2.10;1.40;;;0.00;60.10;;;;;;5004358;28;20059;-69
2021/03/07 06:30:19;;;;;;;1.67;0.97;;;0.00;60.20;;;;;;5002330;28;20140;-69
2021/03/07 06:32:56;;;;;;;2.38;1.25;;;0.00;60.30;;;;;;5042014;28;20041;-70
2021/03/07 06:35:26;;;;;;;1.98;1.23;;;0.00;60.70;;;;;;5045774;28;20056;-69
2021/03/07 06:37:59;;;;;;;2.25;1.17;;;0.10;60.40;;;;;;5024854;28;20082;-69
2021/03/07 06:40:33;;;;;;;2.10;1.10;;;0.10;60.40;;;;;;5003143;28;20072;-69
2021/03/07 06:43:01;;;;;;;1.75;1.08;;;0.10;60.60;;;;;;5088733;27;20428;-69
2021/03/07 06:45:42;;;;;;;2.17;1.10;;;0.10;60.50;;;;;;5008640;28;20078;-69
2021/03/07 06:48:09;;;;;;;2.97;1.23;;;0.10;60.80;;;;;;5003501;28;20566;-70
2021/03/07 06:50:51;;;;;;;1.33;1.10;;;0.20;61.00;;;;;;5011861;28;20057;-69
2021/03/07 06:53:31;;;;;;;1.70;1.10;;;0.20;61.10;;;;;;5005644;28;20261;-69
2021/03/07 06:55:57;;;;;;;1.20;0.90;;;0.20;61.30;;;;;;5104026;27;20141;-69
2021/03/07 06:58:24;;;;;;;1.92;1.10;;;0.20;61.50;;;;;;5007235;28;20451;-69
2021/03/07 07:00:50;;;;;;;2.45;1.30;;;0.30;61.40;;;;;;5011166;28;20451;-69
2021/03/07 07:03:17;;;;;;;1.98;1.30;;;0.30;61.50;;;;;;5016782;28;20124;-69
2021/03/07 07:05:45;;;;;;;1.95;1.40;;;0.40;61.60;;;;;;5007467;28;20056;-69
2021/03/07 07:08:13;;;;;;;1.48;1.00;;;0.40;62.00;;;;;;5009369;28;20570;-70
2021/03/07 07:10:49;;;;;;;4.35;1.40;;;0.40;61.80;;;;;;5008957;28;20389;-69
2021/03/07 07:13:15;;;;;;;2.13;1.27;;;0.50;61.90;;;;;;5007367;28;20054;-69
2021/03/07 07:16:05;;;;;;;2.20;1.23;;;0.50;62.00;;;;;;5018560;28;20477;-69
2021/03/07 07:18:33;;;;;;;1.67;1.17;;;0.60;62.00;;;;;;5004875;28;20140;-69
2021/03/07 07:21:02;;;;;;;2.13;1.15;;;0.60;62.50;;;;;;5015023;28;20048;-69
2021/03/07 07:23:29;;;;;;;1.92;1.13;;;0.60;62.50;;;;;;5012753;28;20056;-69
2021/03/07 07:25:55;;;;;;;1.92;1.13;;;0.70;62.80;;;;;;5006354;28;20240;-69
2021/03/07 07:28:23;;;;;;;2.50;1.50;;;0.80;63.00;;;;;;5011200;28;20099;-69
2021/03/07 07:31:01;;;;;;;3.17;1.92;;;0.80;62.90;;;;;;5002303;28;20060;-69
2021/03/07 07:33:49;;;;;;;3.55;1.80;;;0.90;62.80;;;;;;5009055;28;20062;-69
2021/03/07 07:36:39;;;;;;;2.30;1.52;;;0.90;62.90;;;;;;5006459;28;20058;-68
2021/03/07 07:39:08;;;;;;;2.25;1.40;;;1.00;63.00;;;;;;5012086;28;20044;-69
2021/03/07 07:41:38;;;;;;;2.47;1.20;;;1.00;63.10;;;;;;5017263;28;20370;-69
2021/03/07 07:44:08;;;;;;;2.95;1.40;;;1.10;63.60;;;;;;5004865;28;20136;-69
2021/03/07 07:47:00;;;;;;;2.42;1.60;;;1.20;63.70;;;;;;5003751;28;20054;-69
2021/03/07 07:49:46;;;;;;;1.88;1.20;;;1.20;63.70;;;;;;5016269;28;20098;-69
2021/03/07 07:52:25;;;;;;;2.50;1.45;;;1.30;63.80;;;;;;5013094;28;20061;-69
2021/03/07 07:54:54;;;;;;;1.90;1.10;;;1.30;64.40;;;;;;5000801;28;20139;-69
2021/03/07 07:57:34;;;;;;;2.13;1.30;;;1.40;64.30;;;;;;5003449;28;20054;-69
2021/03/07 08:00:04;;;;;;;2.40;1.50;;;1.50;64.70;;;;;;5006403;28;20058;-69
2021/03/07 08:02:42;;;;;;;2.20;1.30;;;1.50;64.70;;;;;;5035027;28;20055;-69
2021/03/07 08:05:21;;;;;;;2.45;1.40;;;1.60;65.00;;;;;;5001225;28;20049;-69
2021/03/07 08:08:04;;;;;;;2.00;1.27;;;1.70;65.00;;;;;;5008405;28;20042;-69
2021/03/07 08:10:39;;;;;;;2.22;1.42;;;1.70;65.20;;;;;;5003442;28;20145;-70
2021/03/07 08:13:11;;;;;;;2.28;1.25;;;1.80;65.30;;;;;;5000397;28;20091;-69
2021/03/07 08:15:44;;;;;;;2.70;1.50;;;1.90;65.60;;;;;;4998214;28;20046;-69
2021/03/07 08:18:12;;;;;;;2.47;1.33;;;1.90;65.90;;;;;;4999008;28;20412;-69
2021/03/07 08:20:38;;;;;;;2.47;1.40;;;2.00;66.50;;;;;;5095846;27;20054;-69
2021/03/07 08:23:10;;;;;;;2.45;1.20;;;2.10;66.60;;;;;;5101050;27;20041;-69
2021/03/07 08:25:46;;;;;;;3.25;1.67;;;2.10;66.80;;;;;;4996820;28;20058;-69
2021/03/07 08:28:42;;;;;;;2.78;1.55;;;2.20;66.80;;;;;;5106877;27;20408;-69
2021/03/07 08:31:31;;;;;;;2.63;1.45;;;2.30;66.90;;;;;;5003447;28;20153;-69
2021/03/07 08:34:20;;;;;;;2.00;1.17;;;2.40;67.70;;;;;;4994607;28;20065;-69
2021/03/07 08:36:50;;;;;;;;;;;2.50;67.40;;;;;;4993582;28;20060;-69
2021/03/07 08:39:17;;;;;;;2.67;1.50;;;2.60;69.90;;;;;;4994523;28;19925;-69
2021/03/07 08:41:46;;;;;;;2.15;1.20;;;2.70;68.50;;;;;;4985494;28;20386;-68
2021/03/07 08:44:14;;;;;;;2.90;1.40;;;2.80;68.10;;;;;;4998068;28;20045;-69
2021/03/07 08:46:40;;;;;;;3.35;1.35;;;2.90;68.10;;;;;;4989272;28;20481;-69
2021/03/07 08:49:15;;;;;;;4.43;1.50;;;3.00;68.30;;;;;;4994097;28;20069;-69
2021/03/07 08:51:45;;;;;;;2.03;1.40;;;3.10;68.60;;;;;;4996085;28;21346;-69
2021/03/07 08:54:13;;;;;;;2.25;1.20;;;3.20;69.30;;;;;;4997556;28;20050;-69
2021/03/07 08:56:41;;;;;;;3.03;1.80;;;3.30;69.20;;;;;;4998510;28;20135;-69
2021/03/07 08:59:09;;;;;;;2.22;1.60;;;3.40;69.80;;;;;;4995239;28;20502;-69
2021/03/07 09:01:35;;;;;;;2.42;1.65;;;3.40;69.90;;;;;;4993504;28;20050;-69
2021/03/07 09:04:04;;;;;;;2.90;1.80;;;3.50;70.10;;;;;;4999321;28;20069;-69
2021/03/07 09:06:37;;;;;;;2.63;1.65;;;3.60;69.90;;;;;;4990531;28;20146;-70
2021/03/07 09:09:10;;;;;;;2.92;1.65;;;3.70;70.30;;;;;;4992880;28;20065;-69
2021/03/07 09:12:00;;;;;;;2.97;1.98;;;3.80;70.30;;;;;;4992336;28;20058;-70
2021/03/07 09:14:38;;;;;;;4.07;1.88;;;3.90;70.70;;;;;;5001523;27;20060;-70
2021/03/07 09:17:17;;;;;;;4.90;2.28;;;4.00;70.80;;;;;;4997975;28;20076;-69
2021/03/07 09:19:45;;;;;;;4.07;2.22;;;4.00;71.20;;;;;;4995081;28;20056;-70
2021/03/07 09:22:26;;;;;;;3.85;2.13;;;4.20;71.30;;;;;;5002095;28;20052;-69
2021/03/07 09:25:03;;;;;;;3.78;2.15;;;4.30;71.70;;;;;;4995038;28;20489;-69
2021/03/07 09:27:35;;;;;;;3.70;2.20;;;4.40;71.50;;;;;;4973414;28;20533;-69
2021/03/07 09:30:12;;;;;;;3.90;1.98;;;4.60;71.80;;;;;;4985419;28;20549;-70
2021/03/07 09:32:43;;;;;;;4.00;2.60;;;4.70;72.20;;;;;;4982353;28;20481;-69
2021/03/07 09:35:31;;;;;;;4.47;2.55;;;4.80;72.40;;;;;;4982356;28;21001;-69
2021/03/07 09:38:03;;;;;;;4.90;2.88;;;5.10;72.80;;;;;;5079678;27;20199;-69
2021/03/07 09:40:38;;;;;;;4.90;2.58;;;5.20;72.70;;;;;;4986731;28;20053;-69
2021/03/07 09:43:07;;;;;;;3.75;2.20;;;5.30;72.80;;;;;;4980873;28;20185;-69
2021/03/07 09:45:34;;;;;;;;;;;5.40;72.80;;;;;;4976718;28;20042;-69
2021/03/07 09:48:14;;;;;;;3.60;2.20;;;5.50;73.30;;;;;;4983089;28;19937;-69
2021/03/07 09:50:42;;;;;;;4.35;2.78;;;5.60;72.90;;;;;;5079973;27;20465;-69
2021/03/07 09:53:09;;;;;;;5.15;2.80;;;5.70;72.80;;;;;;4983516;28;20046;-69
2021/03/07 09:55:36;;;;;;;3.83;2.33;;;5.80;72.60;;;;;;4989194;28;20224;-69
2021/03/07 09:58:08;;;;;;;4.70;2.33;;;5.80;72.40;;;;;;4992171;28;21147;-69
2021/03/07 10:00:38;;;;;;;4.70;2.63;;;5.90;72.60;;;;;;4993619;28;20046;-69
2021/03/07 10:03:19;;;;;;;4.55;2.80;;;6.00;72.70;;;;;;4991320;28;20365;-69
2021/03/07 10:06:05;;;;;;;5.90;2.78;;;6.10;72.80;;;;;;5088194;27;20414;-69
2021/03/07 10:08:33;;;;;;;5.53;2.58;;;6.10;72.70;;;;;;4989256;28;20091;-70
2021/03/07 10:11:11;;;;;;;4.65;3.15;;;6.20;72.90;;;;;;5096562;27;20504;-70
2021/03/07 10:13:37;;;;;;;5.20;2.80;;;6.30;73.00;;;;;;4988314;28;20397;-70
2021/03/07 10:16:05;;;;;;;5.00;2.95;;;6.40;73.40;;;;;;4990533;28;20061;-69
2021/03/07 10:18:35;;;;;;;4.30;2.63;;;6.60;73.90;;;;;;4992599;28;20053;-69
2021/03/07 10:21:02;;;;;;;7.00;3.40;;;6.70;74.10;;;;;;5003663;28;20774;-69
2021/03/07 10:23:31;;;;;;;5.30;2.80;;;6.80;74.10;;;;;;4997960;28;20408;-69
2021/03/07 10:25:58;;;;;;;4.93;2.92;;;6.90;74.00;;;;;;5097669;27;20050;-69
2021/03/07 10:28:33;;;;;;;4.95;2.88;;;7.00;74.20;;;;;;5001591;28;20500;-69
2021/03/07 10:31:26;;;;;;;4.90;3.05;;;7.20;74.90;;;;;;5097168;27;20050;-69
2021/03/07 10:33:59;;;;;;;4.78;2.92;;;7.60;75.70;;;;;;4999447;28;20069;-70
2021/03/07 10:36:25;;;;;;;3.88;2.28;;;8.00;76.70;;;;;;4994848;28;20054;-70
2021/03/07 10:39:09;;;;;;;5.30;2.95;;;8.20;76.80;;;;;;4994865;28;20060;-70
2021/03/07 10:41:36;;;;;;;5.38;2.72;;;8.50;77.80;;;;;;4993832;28;20469;-70
2021/03/07 10:44:04;;;;;;;4.85;2.80;;;8.70;79.10;;;;;;4994068;28;20423;-70
2021/03/07 10:46:39;;;;;;;5.28;2.85;;;8.80;78.60;;;;;;4993809;28;20468;-69
2021/03/07 10:49:20;;;;;;;4.22;2.80;;;8.70;78.00;;;;;;4995072;28;20633;-69
2021/03/07 10:51:47;;;;;;;4.05;2.67;;;8.60;77.90;;;;;;4994718;28;20068;-69
2021/03/07 10:54:14;;;;;;;4.05;2.50;;;8.60;78.70;;;;;;4991876;28;20054;-69
2021/03/07 10:56:40;;;;;;;4.63;2.80;;;8.70;78.90;;;;;;4997021;28;20042;-69
2021/03/07 10:59:09;;;;;;;4.32;2.75;;;8.80;78.90;;;;;;4993016;28;20129;-69
2021/03/07 11:01:35;;;;;;;4.77;2.73;;;8.80;78.90;;;;;;4992536;28;20049;-70
2021/03/07 11:04:02;;;;;;;6.63;2.50;;;8.70;77.80;;;;;;5000105;28;20332;-69
2021/03/07 11:06:28;;;;;;;3.47;2.08;;;8.50;75.50;;;;;;4993690;28;20216;-70
2021/03/07 11:08:54;;;;;;;3.80;2.38;;;8.30;75.30;;;;;;5007864;28;20125;-69
2021/03/07 11:11:21;;;;;;;3.92;2.00;;;8.10;75.10;;;;;;5012759;28;20140;-69
2021/03/07 11:13:47;;;;;;;3.28;1.90;;;8.00;74.40;;;;;;5009204;28;20550;-70
2021/03/07 11:16:13;;;;;;;3.90;2.10;;;7.90;73.90;;;;;;4993348;28;20154;-70
2021/03/07 11:18:40;;;;;;;3.70;2.03;;;7.80;73.70;;;;;;5006892;28;20196;-69
2021/03/07 11:21:07;;;;;;;3.22;1.90;;;7.80;73.60;;;;;;4993234;28;20050;-69
2021/03/07 11:23:34;;;;;;;3.60;1.63;;;7.80;73.30;;;;;;4998492;28;20038;-69
2021/03/07 11:26:02;;;;;;;3.10;1.50;;;7.90;73.30;;;;;;5003703;28;20168;-69
2021/03/07 11:28:29;;;;;;;2.40;1.30;;;7.90;72.90;;;;;;4997275;28;20048;-69
2021/03/07 11:30:55;;;;;;;2.70;1.50;;;8.00;73.10;;;;;;4998196;28;20054;-69
2021/03/07 11:33:22;;;;;;;2.28;1.20;;;8.20;73.80;;;;;;4998693;28;20153;-69
2021/03/07 11:35:48;;;;;;;3.00;1.30;;;8.50;74.60;;;;;;4992276;28;20057;-69
2021/03/07 11:38:15;;;;;;;2.10;1.02;;;8.70;73.50;;;;;;5001343;28;20407;-69
2021/03/07 11:40:41;;;;;;;1.70;0.90;;;8.70;72.80;;;;;;4992168;28;20469;-69
2021/03/07 11:43:07;;;;;;;1.80;1.00;;;8.50;71.90;;;;;;5005982;28;20096;-69
2021/03/07 11:45:33;;;;;;;1.75;1.00;;;8.40;71.80;;;;;;4988873;28;20056;-69
2021/03/07 11:48:00;;;;;;;1.80;0.88;;;8.30;71.30;;;;;;4999339;28;20061;-69
2021/03/07 11:50:26;;;;;;;1.98;1.00;;;8.20;71.30;;;;;;5004064;28;20465;-69
2021/03/07 11:52:53;;;;;;;2.08;1.00;;;8.10;70.80;;;;;;5006911;28;20480;-69
2021/03/07 11:55:19;;;;;;;2.00;0.98;;;8.10;70.40;;;;;;5001822;28;20046;-70
2021/03/07 11:57:45;;;;;;;1.90;0.90;;;8.00;70.50;;;;;;5005517;28;20473;-70
2021/03/07 12:00:12;;;;;;;2.20;1.33;;;7.90;70.50;;;;;;5006651;28;20046;-69
2021/03/07 12:02:38;;;;;;;1.90;1.00;;;7.90;70.60;;;;;;5006840;28;20420;-69
2021/03/07 12:05:06;;;;;;;2.47;1.00;;;7.90;70.90;;;;;;5005687;28;20412;-69
2021/03/07 12:07:32;;;;;;;2.63;1.10;;;8.00;71.30;;;;;;5005144;28;20047;-69
2021/03/07 12:09:59;;;;;;;2.05;1.27;;;8.00;71.00;;;;;;5007942;28;20477;-69
2021/03/07 12:12:25;;;;;;;3.20;1.02;;;8.00;71.00;;;;;;5005407;28;20061;-69
2021/03/07 12:14:51;;;;;;;5.20;1.65;;;8.10;71.30;;;;;;5006815;28;20085;-69
2021/03/07 12:17:18;;;;;;;3.90;1.40;;;8.10;71.10;;;;;;5004290;28;20052;-70
2021/03/07 12:20:00;;;;;;;1.90;1.30;;;8.10;71.10;;;;;;5003743;28;20056;-69
2021/03/07 12:22:26;;;;;;;3.20;1.60;;;8.10;70.90;;;;;;5003973;28;20451;-69
2021/03/07 12:24:52;;;;;;;2.42;1.30;;;8.10;71.20;;;;;;5005889;28;20046;-69
2021/03/07 12:27:18;;;;;;;2.35;1.35;;;8.10;71.20;;;;;;5003463;28;20455;-70
2021/03/07 12:29:47;;;;;;;2.15;1.20;;;8.10;71.20;;;;;;5005897;28;20133;-69
2021/03/07 12:32:14;;;;;;;2.70;1.17;;;8.10;70.30;;;;;;5005197;28;20400;-69
2021/03/07 12:34:40;;;;;;;2.47;1.23;;;8.10;70.40;;;;;;5006172;28;20137;-70
2021/03/07 12:37:06;;;;;;;2.75;1.50;;;8.10;70.30;;;;;;5005969;28;20073;-69
2021/03/07 12:39:33;;;;;;;3.80;1.40;;;8.00;70.30;;;;;;5000566;28;20068;-69
2021/03/07 12:41:59;;;;;;;3.70;1.40;;;7.90;69.90;;;;;;5005028;28;20390;-69
2021/03/07 12:44:25;;;;;;;2.58;1.58;;;7.80;69.80;;;;;;5001239;28;20080;-70
2021/03/07 12:46:51;;;;;;;2.00;1.30;;;7.70;70.00;;;;;;5004467;28;20054;-69
2021/03/07 12:49:18;;;;;;;3.80;1.98;;;7.60;69.80;;;;;;5000963;28;20060;-69
2021/03/07 12:51:45;;;;;;;2.58;1.50;;;7.60;70.00;;;;;;5006630;28;20445;-70
2021/03/07 12:54:11;;;;;;;3.00;1.63;;;7.50;69.80;;;;;;5002122;28;20570;-70
2021/03/07 12:56:38;;;;;;;2.88;1.73;;;7.50;69.90;;;;;;5005406;28;20221;-69
2021/03/07 12:59:04;;;;;;;3.20;1.85;;;7.40;69.90;;;;;;5005218;28;20121;-69
2021/03/07 13:01:32;;;;;;;3.13;1.50;;;7.40;70.10;;;;;;5005948;28;20077;-69
2021/03/07 13:03:59;;;;;;;2.58;1.58;;;7.40;70.20;;;;;;5006049;28;20099;-69
2021/03/07 13:06:25;;;;;;;3.63;1.70;;;7.40;70.00;;;;;;5006407;28;20128;-69